sensor_id;sensor_type;location;lat;lon;timestamp;P1;durP1;ratioP1;P2;durP2;ratioP2
24401;SDS011;12539;48.808;11.292;2022-12-29T00:02:13;13.25;;;8.43;;
24401;SDS011;12539;48.808;11.292;2022-12-29T00:04:39;8.02;;;6.07;;
24401;SDS011;12539;48.808;11.292;2022-12-29T00:07:05;8.32;;;6.47;;
24401;SDS011;12539;48.808;11.292;2022-12-29T00:09:31;11.98;;;7.35;;
24401;SDS011;12539;48.808;11.292;2022-12-29T00:11:57;12.27;;;6.20;;
24401;SDS011;12539;48.808;11.292;2022-12-29T00:14:24;9.48;;;7.32;;
24401;SDS011;12539;48.808;11.292;2022-12-29T00:17:08;7.97;;;6.35;;
24401;SDS011;12539;48.808;11.292;2022-12-29T00:19:34;6.75;;;5.75;;
24401;SDS011;12539;48.808;11.292;2022-12-29T00:22:18;7.90;;;5.68;;
24401;SDS011;12539;48.808;11.292;2022-12-29T00:25:04;8.95;;;5.75;;
24401;SDS011;12539;48.808;11.292;2022-12-29T00:27:49;7.82;;;5.60;;
24401;SDS011;12539;48.808;11.292;2022-12-29T00:30:33;7.47;;;5.78;;
24401;SDS011;12539;48.808;11.292;2022-12-29T00:33:19;8.98;;;6.55;;
24401;SDS011;12539;48.808;11.292;2022-12-29T00:36:06;10.70;;;6.35;;
24401;SDS011;12539;48.808;11.292;2022-12-29T00:38:47;8.77;;;7.22;;
24401;SDS011;12539;48.808;11.292;2022-12-29T00:41:36;8.38;;;6.05;;
24401;SDS011;12539;48.808;11.292;2022-12-29T00:44:20;8.15;;;6.18;;
24401;SDS011;12539;48.808;11.292;2022-12-29T00:46:46;9.18;;;6.43;;
24401;SDS011;12539;48.808;11.292;2022-12-29T00:49:13;12.20;;;8.27;;
24401;SDS011;12539;48.808;11.292;2022-12-29T00:52:04;7.78;;;5.85;;
24401;SDS011;12539;48.808;11.292;2022-12-29T00:54:32;8.95;;;6.22;;
24401;SDS011;12539;48.808;11.292;2022-12-29T00:57:00;8.85;;;6.75;;
24401;SDS011;12539;48.808;11.292;2022-12-29T00:59:27;7.10;;;5.30;;
24401;SDS011;12539;48.808;11.292;2022-12-29T01:01:53;8.43;;;6.57;;
24401;SDS011;12539;48.808;11.292;2022-12-29T01:04:20;8.73;;;5.88;;
24401;SDS011;12539;48.808;11.292;2022-12-29T01:06:48;7.43;;;5.53;;
24401;SDS011;12539;48.808;11.292;2022-12-29T01:09:14;7.22;;;4.90;;
24401;SDS011;12539;48.808;11.292;2022-12-29T01:12:00;7.05;;;5.22;;
24401;SDS011;12539;48.808;11.292;2022-12-29T01:14:26;8.30;;;5.32;;
24401;SDS011;12539;48.808;11.292;2022-12-29T01:16:52;6.22;;;4.80;;
24401;SDS011;12539;48.808;11.292;2022-12-29T01:19:19;11.68;;;6.53;;
24401;SDS011;12539;48.808;11.292;2022-12-29T01:21:45;6.93;;;5.35;;
24401;SDS011;12539;48.808;11.292;2022-12-29T01:24:11;6.22;;;4.65;;
24401;SDS011;12539;48.808;11.292;2022-12-29T01:26:37;7.15;;;5.25;;
24401;SDS011;12539;48.808;11.292;2022-12-29T01:29:03;8.05;;;5.57;;
24401;SDS011;12539;48.808;11.292;2022-12-29T01:31:28;7.55;;;4.45;;
24401;SDS011;12539;48.808;11.292;2022-12-29T01:33:54;6.50;;;4.90;;
24401;SDS011;12539;48.808;11.292;2022-12-29T01:36:19;7.47;;;4.63;;
24401;SDS011;12539;48.808;11.292;2022-12-29T01:38:45;7.05;;;4.90;;
24401;SDS011;12539;48.808;11.292;2022-12-29T01:41:12;17.88;;;11.40;;
24401;SDS011;12539;48.808;11.292;2022-12-29T01:43:40;7.82;;;5.40;;
24401;SDS011;12539;48.808;11.292;2022-12-29T01:51:15;16.85;;;8.55;;
24401;SDS011;12539;48.808;11.292;2022-12-29T01:53:42;8.80;;;6.20;;
24401;SDS011;12539;48.808;11.292;2022-12-29T01:56:10;11.30;;;6.53;;
24401;SDS011;12539;48.808;11.292;2022-12-29T01:58:41;10.75;;;5.03;;
24401;SDS011;12539;48.808;11.292;2022-12-29T02:01:11;9.63;;;7.30;;
24401;SDS011;12539;48.808;11.292;2022-12-29T02:03:37;7.25;;;5.25;;
24401;SDS011;12539;48.808;11.292;2022-12-29T02:08:35;9.73;;;5.63;;
24401;SDS011;12539;48.808;11.292;2022-12-29T02:11:04;10.27;;;6.22;;
24401;SDS011;12539;48.808;11.292;2022-12-29T02:13:30;7.05;;;5.22;;
24401;SDS011;12539;48.808;11.292;2022-12-29T02:40:48;6.50;;;3.83;;
24401;SDS011;12539;48.808;11.292;2022-12-29T02:49:08;4.55;;;3.78;;
24401;SDS011;12539;48.808;11.292;2022-12-29T02:52:01;7.68;;;4.95;;
24401;SDS011;12539;48.808;11.292;2022-12-29T02:54:31;4.50;;;3.38;;
24401;SDS011;12539;48.808;11.292;2022-12-29T03:10:53;6.68;;;4.50;;
24401;SDS011;12539;48.808;11.292;2022-12-29T03:16:23;9.60;;;6.47;;
24401;SDS011;12539;48.808;11.292;2022-12-29T03:19:17;5.65;;;4.63;;
24401;SDS011;12539;48.808;11.292;2022-12-29T03:21:49;9.02;;;5.90;;
24401;SDS011;12539;48.808;11.292;2022-12-29T03:24:46;6.72;;;5.15;;
24401;SDS011;12539;48.808;11.292;2022-12-29T03:27:17;6.07;;;4.50;;
24401;SDS011;12539;48.808;11.292;2022-12-29T03:29:52;7.45;;;5.50;;
24401;SDS011;12539;48.808;11.292;2022-12-29T03:32:23;6.25;;;4.30;;
24401;SDS011;12539;48.808;11.292;2022-12-29T03:34:52;5.22;;;4.03;;
24401;SDS011;12539;48.808;11.292;2022-12-29T03:37:20;6.18;;;4.38;;
24401;SDS011;12539;48.808;11.292;2022-12-29T03:39:50;5.43;;;3.63;;
24401;SDS011;12539;48.808;11.292;2022-12-29T03:42:18;5.95;;;3.85;;
24401;SDS011;12539;48.808;11.292;2022-12-29T03:44:46;4.57;;;3.20;;
24401;SDS011;12539;48.808;11.292;2022-12-29T03:47:13;4.68;;;3.25;;
24401;SDS011;12539;48.808;11.292;2022-12-29T03:49:39;3.83;;;2.80;;
24401;SDS011;12539;48.808;11.292;2022-12-29T03:52:05;3.40;;;2.70;;
24401;SDS011;12539;48.808;11.292;2022-12-29T03:54:32;4.40;;;2.53;;
24401;SDS011;12539;48.808;11.292;2022-12-29T03:56:57;5.00;;;2.60;;
24401;SDS011;12539;48.808;11.292;2022-12-29T03:59:23;3.65;;;2.60;;
24401;SDS011;12539;48.808;11.292;2022-12-29T04:01:49;4.25;;;3.00;;
24401;SDS011;12539;48.808;11.292;2022-12-29T04:04:15;4.65;;;2.10;;
24401;SDS011;12539;48.808;11.292;2022-12-29T04:06:41;2.78;;;2.30;;
24401;SDS011;12539;48.808;11.292;2022-12-29T04:09:06;2.90;;;2.60;;
24401;SDS011;12539;48.808;11.292;2022-12-29T04:11:32;4.18;;;2.60;;
24401;SDS011;12539;48.808;11.292;2022-12-29T04:13:58;2.33;;;2.10;;
24401;SDS011;12539;48.808;11.292;2022-12-29T04:16:24;3.00;;;2.20;;
24401;SDS011;12539;48.808;11.292;2022-12-29T04:18:49;3.83;;;2.60;;
24401;SDS011;12539;48.808;11.292;2022-12-29T04:21:15;2.65;;;2.25;;
24401;SDS011;12539;48.808;11.292;2022-12-29T04:23:41;2.72;;;2.28;;
24401;SDS011;12539;48.808;11.292;2022-12-29T04:26:06;3.67;;;2.85;;
24401;SDS011;12539;48.808;11.292;2022-12-29T04:28:34;4.20;;;2.30;;
24401;SDS011;12539;48.808;11.292;2022-12-29T04:31:00;3.53;;;2.42;;
24401;SDS011;12539;48.808;11.292;2022-12-29T04:33:25;3.20;;;2.30;;
24401;SDS011;12539;48.808;11.292;2022-12-29T04:35:51;2.97;;;2.28;;
24401;SDS011;12539;48.808;11.292;2022-12-29T04:38:19;3.65;;;2.45;;
24401;SDS011;12539;48.808;11.292;2022-12-29T04:40:45;3.85;;;2.90;;
24401;SDS011;12539;48.808;11.292;2022-12-29T04:43:12;3.00;;;2.28;;
24401;SDS011;12539;48.808;11.292;2022-12-29T04:45:39;3.83;;;2.53;;
24401;SDS011;12539;48.808;11.292;2022-12-29T04:48:08;2.90;;;2.60;;
24401;SDS011;12539;48.808;11.292;2022-12-29T04:50:34;3.05;;;1.85;;
24401;SDS011;12539;48.808;11.292;2022-12-29T04:53:00;2.80;;;2.50;;
24401;SDS011;12539;48.808;11.292;2022-12-29T04:55:25;3.45;;;2.22;;
24401;SDS011;12539;48.808;11.292;2022-12-29T04:57:51;2.72;;;2.03;;
24401;SDS011;12539;48.808;11.292;2022-12-29T05:00:17;4.53;;;2.22;;
24401;SDS011;12539;48.808;11.292;2022-12-29T05:02:43;2.92;;;1.90;;
24401;SDS011;12539;48.808;11.292;2022-12-29T05:05:10;2.20;;;1.60;;
24401;SDS011;12539;48.808;11.292;2022-12-29T05:07:36;1.98;;;1.63;;
24401;SDS011;12539;48.808;11.292;2022-12-29T05:10:02;8.25;;;5.40;;
24401;SDS011;12539;48.808;11.292;2022-12-29T05:12:29;2.75;;;1.85;;
24401;SDS011;12539;48.808;11.292;2022-12-29T05:14:56;2.47;;;1.75;;
24401;SDS011;12539;48.808;11.292;2022-12-29T05:17:21;4.22;;;2.50;;
24401;SDS011;12539;48.808;11.292;2022-12-29T05:19:47;2.65;;;1.48;;
24401;SDS011;12539;48.808;11.292;2022-12-29T05:22:13;2.60;;;1.73;;
24401;SDS011;12539;48.808;11.292;2022-12-29T05:24:39;3.20;;;1.83;;
24401;SDS011;12539;48.808;11.292;2022-12-29T05:27:05;3.20;;;2.38;;
24401;SDS011;12539;48.808;11.292;2022-12-29T05:29:30;4.75;;;3.42;;
24401;SDS011;12539;48.808;11.292;2022-12-29T05:31:56;3.55;;;2.50;;
24401;SDS011;12539;48.808;11.292;2022-12-29T05:34:22;3.30;;;2.15;;
24401;SDS011;12539;48.808;11.292;2022-12-29T05:36:47;3.30;;;2.33;;
24401;SDS011;12539;48.808;11.292;2022-12-29T05:39:13;2.85;;;2.05;;
24401;SDS011;12539;48.808;11.292;2022-12-29T05:41:39;3.13;;;2.03;;
24401;SDS011;12539;48.808;11.292;2022-12-29T05:44:04;4.25;;;2.03;;
24401;SDS011;12539;48.808;11.292;2022-12-29T05:46:30;2.03;;;1.77;;
24401;SDS011;12539;48.808;11.292;2022-12-29T05:48:56;2.42;;;2.10;;
24401;SDS011;12539;48.808;11.292;2022-12-29T05:51:22;2.58;;;2.05;;
24401;SDS011;12539;48.808;11.292;2022-12-29T05:53:47;4.45;;;1.70;;
24401;SDS011;12539;48.808;11.292;2022-12-29T05:56:13;3.17;;;1.40;;
24401;SDS011;12539;48.808;11.292;2022-12-29T05:58:38;2.90;;;1.77;;
24401;SDS011;12539;48.808;11.292;2022-12-29T06:01:04;3.05;;;1.50;;
24401;SDS011;12539;48.808;11.292;2022-12-29T06:03:30;2.08;;;1.55;;
24401;SDS011;12539;48.808;11.292;2022-12-29T06:05:55;3.95;;;2.17;;
24401;SDS011;12539;48.808;11.292;2022-12-29T06:08:21;4.53;;;1.98;;
24401;SDS011;12539;48.808;11.292;2022-12-29T06:10:47;2.88;;;1.67;;
24401;SDS011;12539;48.808;11.292;2022-12-29T06:13:12;3.05;;;1.73;;
24401;SDS011;12539;48.808;11.292;2022-12-29T06:15:38;2.70;;;1.63;;
24401;SDS011;12539;48.808;11.292;2022-12-29T06:18:04;2.75;;;1.80;;
24401;SDS011;12539;48.808;11.292;2022-12-29T06:20:29;3.90;;;2.15;;
24401;SDS011;12539;48.808;11.292;2022-12-29T06:22:55;4.82;;;2.15;;
24401;SDS011;12539;48.808;11.292;2022-12-29T06:25:21;3.65;;;1.70;;
24401;SDS011;12539;48.808;11.292;2022-12-29T06:27:46;2.92;;;1.88;;
24401;SDS011;12539;48.808;11.292;2022-12-29T06:30:12;3.15;;;1.75;;
24401;SDS011;12539;48.808;11.292;2022-12-29T06:32:38;3.97;;;1.83;;
24401;SDS011;12539;48.808;11.292;2022-12-29T06:35:04;3.00;;;1.92;;
24401;SDS011;12539;48.808;11.292;2022-12-29T06:37:33;3.70;;;1.95;;
24401;SDS011;12539;48.808;11.292;2022-12-29T06:39:59;2.28;;;1.70;;
24401;SDS011;12539;48.808;11.292;2022-12-29T06:42:24;3.10;;;1.83;;
24401;SDS011;12539;48.808;11.292;2022-12-29T06:44:50;2.55;;;1.60;;
24401;SDS011;12539;48.808;11.292;2022-12-29T06:47:15;3.33;;;1.52;;
24401;SDS011;12539;48.808;11.292;2022-12-29T06:49:41;2.15;;;1.58;;
24401;SDS011;12539;48.808;11.292;2022-12-29T06:52:07;3.92;;;2.03;;
24401;SDS011;12539;48.808;11.292;2022-12-29T06:54:32;3.85;;;1.85;;
24401;SDS011;12539;48.808;11.292;2022-12-29T06:56:58;2.40;;;1.63;;
24401;SDS011;12539;48.808;11.292;2022-12-29T06:59:24;2.45;;;1.67;;
24401;SDS011;12539;48.808;11.292;2022-12-29T07:01:50;3.30;;;1.90;;
24401;SDS011;12539;48.808;11.292;2022-12-29T07:04:16;4.78;;;1.92;;
24401;SDS011;12539;48.808;11.292;2022-12-29T07:06:42;4.70;;;2.60;;
24401;SDS011;12539;48.808;11.292;2022-12-29T07:09:08;5.47;;;3.47;;
24401;SDS011;12539;48.808;11.292;2022-12-29T07:11:34;2.97;;;2.22;;
24401;SDS011;12539;48.808;11.292;2022-12-29T07:13:59;4.85;;;2.88;;
24401;SDS011;12539;48.808;11.292;2022-12-29T07:16:25;4.88;;;2.53;;
24401;SDS011;12539;48.808;11.292;2022-12-29T07:18:51;5.88;;;3.03;;
24401;SDS011;12539;48.808;11.292;2022-12-29T07:21:17;6.90;;;4.60;;
24401;SDS011;12539;48.808;11.292;2022-12-29T07:23:43;8.00;;;5.45;;
24401;SDS011;12539;48.808;11.292;2022-12-29T07:26:09;7.25;;;4.45;;
24401;SDS011;12539;48.808;11.292;2022-12-29T07:28:38;7.20;;;4.32;;
24401;SDS011;12539;48.808;11.292;2022-12-29T07:31:04;5.15;;;3.53;;
24401;SDS011;12539;48.808;11.292;2022-12-29T07:33:41;8.13;;;4.55;;
24401;SDS011;12539;48.808;11.292;2022-12-29T07:36:08;12.50;;;7.15;;
24401;SDS011;12539;48.808;11.292;2022-12-29T07:38:34;28.80;;;16.38;;
24401;SDS011;12539;48.808;11.292;2022-12-29T07:40:59;14.80;;;8.60;;
24401;SDS011;12539;48.808;11.292;2022-12-29T07:43:25;10.45;;;6.85;;
24401;SDS011;12539;48.808;11.292;2022-12-29T07:45:51;9.30;;;4.32;;
24401;SDS011;12539;48.808;11.292;2022-12-29T07:48:16;10.82;;;5.90;;
24401;SDS011;12539;48.808;11.292;2022-12-29T07:50:42;8.15;;;5.85;;
24401;SDS011;12539;48.808;11.292;2022-12-29T07:53:08;5.63;;;3.83;;
24401;SDS011;12539;48.808;11.292;2022-12-29T07:55:33;7.88;;;5.03;;
24401;SDS011;12539;48.808;11.292;2022-12-29T07:57:59;6.50;;;4.38;;
24401;SDS011;12539;48.808;11.292;2022-12-29T08:00:25;6.70;;;5.28;;
24401;SDS011;12539;48.808;11.292;2022-12-29T08:02:51;14.70;;;10.30;;
24401;SDS011;12539;48.808;11.292;2022-12-29T08:05:16;17.73;;;11.80;;
24401;SDS011;12539;48.808;11.292;2022-12-29T08:07:43;16.58;;;9.95;;
24401;SDS011;12539;48.808;11.292;2022-12-29T08:10:09;15.38;;;9.32;;
24401;SDS011;12539;48.808;11.292;2022-12-29T08:12:37;13.02;;;8.73;;
24401;SDS011;12539;48.808;11.292;2022-12-29T08:15:04;9.48;;;6.25;;
24401;SDS011;12539;48.808;11.292;2022-12-29T08:17:30;10.80;;;7.03;;
24401;SDS011;12539;48.808;11.292;2022-12-29T08:19:56;11.85;;;7.20;;
24401;SDS011;12539;48.808;11.292;2022-12-29T08:22:23;19.23;;;11.68;;
24401;SDS011;12539;48.808;11.292;2022-12-29T08:24:49;30.27;;;18.50;;
24401;SDS011;12539;48.808;11.292;2022-12-29T08:27:14;30.98;;;18.33;;
24401;SDS011;12539;48.808;11.292;2022-12-29T08:29:40;10.73;;;6.57;;
24401;SDS011;12539;48.808;11.292;2022-12-29T08:32:06;8.55;;;5.38;;
24401;SDS011;12539;48.808;11.292;2022-12-29T08:34:32;6.15;;;4.25;;
24401;SDS011;12539;48.808;11.292;2022-12-29T08:36:58;5.78;;;4.15;;
24401;SDS011;12539;48.808;11.292;2022-12-29T08:39:23;6.28;;;4.60;;
24401;SDS011;12539;48.808;11.292;2022-12-29T08:41:49;6.32;;;3.63;;
24401;SDS011;12539;48.808;11.292;2022-12-29T08:44:15;6.07;;;3.85;;
24401;SDS011;12539;48.808;11.292;2022-12-29T08:46:41;6.38;;;4.45;;
24401;SDS011;12539;48.808;11.292;2022-12-29T08:49:07;4.90;;;3.92;;
24401;SDS011;12539;48.808;11.292;2022-12-29T08:51:33;6.35;;;4.22;;
24401;SDS011;12539;48.808;11.292;2022-12-29T08:53:59;13.48;;;4.72;;
24401;SDS011;12539;48.808;11.292;2022-12-29T08:56:25;8.43;;;5.03;;
24401;SDS011;12539;48.808;11.292;2022-12-29T08:58:51;5.05;;;3.92;;
24401;SDS011;12539;48.808;11.292;2022-12-29T09:01:17;6.78;;;4.63;;
24401;SDS011;12539;48.808;11.292;2022-12-29T09:03:43;7.82;;;6.05;;
24401;SDS011;12539;48.808;11.292;2022-12-29T09:06:09;10.25;;;6.97;;
24401;SDS011;12539;48.808;11.292;2022-12-29T09:08:35;7.82;;;5.22;;
24401;SDS011;12539;48.808;11.292;2022-12-29T09:11:11;10.95;;;5.53;;
24401;SDS011;12539;48.808;11.292;2022-12-29T09:13:48;6.45;;;4.53;;
24401;SDS011;12539;48.808;11.292;2022-12-29T09:16:14;7.35;;;4.10;;
24401;SDS011;12539;48.808;11.292;2022-12-29T09:18:41;6.15;;;4.13;;
24401;SDS011;12539;48.808;11.292;2022-12-29T09:21:07;5.93;;;3.70;;
24401;SDS011;12539;48.808;11.292;2022-12-29T09:23:34;6.72;;;5.10;;
24401;SDS011;12539;48.808;11.292;2022-12-29T09:26:00;4.68;;;3.65;;
24401;SDS011;12539;48.808;11.292;2022-12-29T09:28:27;5.88;;;4.13;;
24401;SDS011;12539;48.808;11.292;2022-12-29T09:30:54;6.38;;;4.22;;
24401;SDS011;12539;48.808;11.292;2022-12-29T09:33:20;5.28;;;4.00;;
24401;SDS011;12539;48.808;11.292;2022-12-29T09:35:50;7.40;;;4.50;;
24401;SDS011;12539;48.808;11.292;2022-12-29T09:38:17;9.32;;;6.28;;
24401;SDS011;12539;48.808;11.292;2022-12-29T09:40:45;8.48;;;6.43;;
24401;SDS011;12539;48.808;11.292;2022-12-29T09:51:50;19.40;;;9.82;;
24401;SDS011;12539;48.808;11.292;2022-12-29T09:57:02;25.23;;;13.00;;
24401;SDS011;12539;48.808;11.292;2022-12-29T09:59:41;14.30;;;8.55;;
24401;SDS011;12539;48.808;11.292;2022-12-29T10:04:46;11.20;;;5.93;;
24401;SDS011;12539;48.808;11.292;2022-12-29T10:07:15;8.75;;;4.90;;
24401;SDS011;12539;48.808;11.292;2022-12-29T10:24:18;6.75;;;4.30;;
24401;SDS011;12539;48.808;11.292;2022-12-29T10:26:46;6.63;;;4.43;;
24401;SDS011;12539;48.808;11.292;2022-12-29T10:29:18;8.18;;;5.40;;
24401;SDS011;12539;48.808;11.292;2022-12-29T10:34:27;10.80;;;6.18;;
24401;SDS011;12539;48.808;11.292;2022-12-29T10:39:51;7.38;;;4.82;;
24401;SDS011;12539;48.808;11.292;2022-12-29T10:44:46;6.18;;;4.10;;
24401;SDS011;12539;48.808;11.292;2022-12-29T10:47:16;8.93;;;4.35;;
24401;SDS011;12539;48.808;11.292;2022-12-29T10:49:46;6.07;;;3.95;;
24401;SDS011;12539;48.808;11.292;2022-12-29T10:52:13;5.78;;;3.92;;
24401;SDS011;12539;48.808;11.292;2022-12-29T10:57:24;7.03;;;4.25;;
24401;SDS011;12539;48.808;11.292;2022-12-29T10:59:50;7.93;;;3.50;;
24401;SDS011;12539;48.808;11.292;2022-12-29T11:05:06;6.88;;;3.22;;
24401;SDS011;12539;48.808;11.292;2022-12-29T11:07:48;3.90;;;2.50;;
24401;SDS011;12539;48.808;11.292;2022-12-29T11:10:20;4.25;;;2.53;;
24401;SDS011;12539;48.808;11.292;2022-12-29T11:13:24;4.68;;;3.30;;
24401;SDS011;12539;48.808;11.292;2022-12-29T11:15:52;2.80;;;1.67;;
24401;SDS011;12539;48.808;11.292;2022-12-29T11:18:18;6.10;;;3.33;;
24401;SDS011;12539;48.808;11.292;2022-12-29T11:20:55;3.75;;;2.53;;
24401;SDS011;12539;48.808;11.292;2022-12-29T11:28:46;4.50;;;2.25;;
24401;SDS011;12539;48.808;11.292;2022-12-29T11:31:49;4.40;;;2.53;;
24401;SDS011;12539;48.808;11.292;2022-12-29T11:34:18;4.40;;;2.80;;
24401;SDS011;12539;48.808;11.292;2022-12-29T11:36:46;4.45;;;2.45;;
24401;SDS011;12539;48.808;11.292;2022-12-29T11:39:50;3.00;;;2.25;;
24401;SDS011;12539;48.808;11.292;2022-12-29T11:42:12;4.35;;;2.25;;
24401;SDS011;12539;48.808;11.292;2022-12-29T11:44:42;3.72;;;2.30;;
24401;SDS011;12539;48.808;11.292;2022-12-29T11:47:11;4.47;;;2.88;;
24401;SDS011;12539;48.808;11.292;2022-12-29T11:49:57;4.88;;;1.80;;
24401;SDS011;12539;48.808;11.292;2022-12-29T11:52:28;3.65;;;1.52;;
24401;SDS011;12539;48.808;11.292;2022-12-29T11:55:02;3.80;;;2.20;;
24401;SDS011;12539;48.808;11.292;2022-12-29T11:57:30;6.23;;;2.43;;
24401;SDS011;12539;48.808;11.292;2022-12-29T12:00:00;4.47;;;2.45;;
24401;SDS011;12539;48.808;11.292;2022-12-29T12:02:43;5.53;;;2.88;;
24401;SDS011;12539;48.808;11.292;2022-12-29T12:07:43;6.00;;;2.67;;
24401;SDS011;12539;48.808;11.292;2022-12-29T12:10:15;5.35;;;1.95;;
24401;SDS011;12539;48.808;11.292;2022-12-29T12:12:50;2.80;;;1.25;;
24401;SDS011;12539;48.808;11.292;2022-12-29T12:15:39;3.15;;;2.22;;
24401;SDS011;12539;48.808;11.292;2022-12-29T12:18:15;4.35;;;1.42;;
24401;SDS011;12539;48.808;11.292;2022-12-29T12:23:34;5.15;;;2.00;;
24401;SDS011;12539;48.808;11.292;2022-12-29T12:26:11;5.28;;;1.80;;
24401;SDS011;12539;48.808;11.292;2022-12-29T12:28:46;4.03;;;1.73;;
24401;SDS011;12539;48.808;11.292;2022-12-29T12:31:27;5.13;;;2.20;;
24401;SDS011;12539;48.808;11.292;2022-12-29T12:34:10;5.35;;;1.77;;
24401;SDS011;12539;48.808;11.292;2022-12-29T12:36:46;3.00;;;1.73;;
24401;SDS011;12539;48.808;11.292;2022-12-29T12:44:58;3.83;;;2.13;;
24401;SDS011;12539;48.808;11.292;2022-12-29T12:48:13;6.18;;;1.63;;
24401;SDS011;12539;48.808;11.292;2022-12-29T13:02:01;3.70;;;2.03;;
24401;SDS011;12539;48.808;11.292;2022-12-29T13:07:35;4.15;;;1.98;;
24401;SDS011;12539;48.808;11.292;2022-12-29T13:13:28;3.30;;;1.60;;
24401;SDS011;12539;48.808;11.292;2022-12-29T13:19:04;4.13;;;1.70;;
24401;SDS011;12539;48.808;11.292;2022-12-29T13:26:50;7.03;;;2.40;;
24401;SDS011;12539;48.808;11.292;2022-12-29T13:31:56;11.40;;;4.05;;
24401;SDS011;12539;48.808;11.292;2022-12-29T13:37:22;5.22;;;2.30;;
24401;SDS011;12539;48.808;11.292;2022-12-29T13:39:55;11.77;;;3.42;;
24401;SDS011;12539;48.808;11.292;2022-12-29T13:42:24;5.85;;;3.65;;
24401;SDS011;12539;48.808;11.292;2022-12-29T13:45:02;5.15;;;2.38;;
24401;SDS011;12539;48.808;11.292;2022-12-29T13:50:08;3.70;;;1.60;;
24401;SDS011;12539;48.808;11.292;2022-12-29T13:52:52;6.63;;;1.90;;
24401;SDS011;12539;48.808;11.292;2022-12-29T14:06:26;4.25;;;2.50;;
24401;SDS011;12539;48.808;11.292;2022-12-29T14:09:05;6.15;;;2.10;;
24401;SDS011;12539;48.808;11.292;2022-12-29T14:11:51;3.33;;;1.77;;
24401;SDS011;12539;48.808;11.292;2022-12-29T14:14:21;5.43;;;1.83;;
24401;SDS011;12539;48.808;11.292;2022-12-29T14:16:50;5.65;;;2.45;;
24401;SDS011;12539;48.808;11.292;2022-12-29T14:19:17;9.27;;;2.70;;
24401;SDS011;12539;48.808;11.292;2022-12-29T14:21:58;8.20;;;3.38;;
24401;SDS011;12539;48.808;11.292;2022-12-29T14:24:32;5.70;;;2.20;;
24401;SDS011;12539;48.808;11.292;2022-12-29T14:34:50;5.03;;;1.95;;
24401;SDS011;12539;48.808;11.292;2022-12-29T14:37:36;5.72;;;1.80;;
24401;SDS011;12539;48.808;11.292;2022-12-29T14:40:22;2.88;;;1.90;;
24401;SDS011;12539;48.808;11.292;2022-12-29T14:42:50;5.07;;;1.77;;
24401;SDS011;12539;48.808;11.292;2022-12-29T14:47:47;1.90;;;1.10;;
24401;SDS011;12539;48.808;11.292;2022-12-29T14:55:36;3.67;;;1.95;;
24401;SDS011;12539;48.808;11.292;2022-12-29T15:00:40;3.92;;;2.08;;
24401;SDS011;12539;48.808;11.292;2022-12-29T15:03:20;2.65;;;1.45;;
24401;SDS011;12539;48.808;11.292;2022-12-29T15:06:04;3.80;;;1.60;;
24401;SDS011;12539;48.808;11.292;2022-12-29T15:08:44;4.78;;;2.40;;
24401;SDS011;12539;48.808;11.292;2022-12-29T15:11:21;3.88;;;1.45;;
24401;SDS011;12539;48.808;11.292;2022-12-29T15:13:48;4.32;;;2.05;;
24401;SDS011;12539;48.808;11.292;2022-12-29T15:16:22;6.20;;;1.90;;
24401;SDS011;12539;48.808;11.292;2022-12-29T15:18:54;2.72;;;1.70;;
24401;SDS011;12539;48.808;11.292;2022-12-29T15:21:30;4.43;;;2.10;;
24401;SDS011;12539;48.808;11.292;2022-12-29T15:24:00;3.88;;;2.00;;
24401;SDS011;12539;48.808;11.292;2022-12-29T15:26:41;3.85;;;2.50;;
24401;SDS011;12539;48.808;11.292;2022-12-29T15:31:55;4.38;;;2.63;;
24401;SDS011;12539;48.808;11.292;2022-12-29T15:34:23;4.20;;;2.35;;
24401;SDS011;12539;48.808;11.292;2022-12-29T15:36:50;4.82;;;2.22;;
24401;SDS011;12539;48.808;11.292;2022-12-29T15:39:31;3.95;;;2.08;;
24401;SDS011;12539;48.808;11.292;2022-12-29T15:41:59;4.18;;;2.15;;
24401;SDS011;12539;48.808;11.292;2022-12-29T15:44:40;4.45;;;2.10;;
24401;SDS011;12539;48.808;11.292;2022-12-29T15:47:15;4.53;;;2.15;;
24401;SDS011;12539;48.808;11.292;2022-12-29T15:49:47;3.20;;;1.80;;
24401;SDS011;12539;48.808;11.292;2022-12-29T15:52:17;6.10;;;2.22;;
24401;SDS011;12539;48.808;11.292;2022-12-29T15:54:50;6.35;;;2.40;;
24401;SDS011;12539;48.808;11.292;2022-12-29T15:59:52;4.50;;;2.42;;
24401;SDS011;12539;48.808;11.292;2022-12-29T16:02:19;5.20;;;2.40;;
24401;SDS011;12539;48.808;11.292;2022-12-29T16:04:47;8.45;;;3.83;;
24401;SDS011;12539;48.808;11.292;2022-12-29T16:07:28;5.03;;;3.13;;
24401;SDS011;12539;48.808;11.292;2022-12-29T16:09:59;16.60;;;9.57;;
24401;SDS011;12539;48.808;11.292;2022-12-29T16:12:28;10.02;;;5.93;;
24401;SDS011;12539;48.808;11.292;2022-12-29T16:15:00;15.93;;;7.82;;
24401;SDS011;12539;48.808;11.292;2022-12-29T16:17:30;11.82;;;7.53;;
24401;SDS011;12539;48.808;11.292;2022-12-29T16:19:59;6.63;;;3.65;;
24401;SDS011;12539;48.808;11.292;2022-12-29T16:22:47;12.65;;;8.68;;
24401;SDS011;12539;48.808;11.292;2022-12-29T16:27:43;7.60;;;4.10;;
24401;SDS011;12539;48.808;11.292;2022-12-29T16:30:29;10.55;;;6.03;;
24401;SDS011;12539;48.808;11.292;2022-12-29T16:32:57;12.60;;;6.45;;
24401;SDS011;12539;48.808;11.292;2022-12-29T16:35:28;9.07;;;5.53;;
24401;SDS011;12539;48.808;11.292;2022-12-29T16:38:13;5.68;;;3.85;;
24401;SDS011;12539;48.808;11.292;2022-12-29T16:43:22;6.00;;;3.85;;
24401;SDS011;12539;48.808;11.292;2022-12-29T16:48:20;6.10;;;4.60;;
24401;SDS011;12539;48.808;11.292;2022-12-29T16:50:49;8.38;;;4.40;;
24401;SDS011;12539;48.808;11.292;2022-12-29T16:53:57;8.30;;;4.18;;
24401;SDS011;12539;48.808;11.292;2022-12-29T16:56:08;15.02;;;8.75;;
24401;SDS011;12539;48.808;11.292;2022-12-29T16:58:45;18.10;;;11.02;;
24401;SDS011;12539;48.808;11.292;2022-12-29T17:03:53;12.25;;;7.97;;
24401;SDS011;12539;48.808;11.292;2022-12-29T17:06:23;7.63;;;5.50;;
24401;SDS011;12539;48.808;11.292;2022-12-29T17:08:50;8.85;;;5.63;;
24401;SDS011;12539;48.808;11.292;2022-12-29T17:11:20;7.10;;;5.13;;
24401;SDS011;12539;48.808;11.292;2022-12-29T17:14:10;4.90;;;3.78;;
24401;SDS011;12539;48.808;11.292;2022-12-29T17:16:48;8.00;;;5.35;;
24401;SDS011;12539;48.808;11.292;2022-12-29T17:19:17;7.55;;;5.20;;
24401;SDS011;12539;48.808;11.292;2022-12-29T17:21:45;8.73;;;4.80;;
24401;SDS011;12539;48.808;11.292;2022-12-29T17:24:14;9.32;;;5.90;;
24401;SDS011;12539;48.808;11.292;2022-12-29T17:26:48;7.88;;;4.50;;
24401;SDS011;12539;48.808;11.292;2022-12-29T17:29:50;6.10;;;4.50;;
24401;SDS011;12539;48.808;11.292;2022-12-29T17:32:11;6.32;;;4.05;;
24401;SDS011;12539;48.808;11.292;2022-12-29T17:34:38;10.65;;;6.40;;
24401;SDS011;12539;48.808;11.292;2022-12-29T17:37:26;7.47;;;5.00;;
24401;SDS011;12539;48.808;11.292;2022-12-29T17:39:56;8.10;;;5.55;;
24401;SDS011;12539;48.808;11.292;2022-12-29T17:42:22;10.02;;;6.10;;
24401;SDS011;12539;48.808;11.292;2022-12-29T17:44:48;11.88;;;6.32;;
24401;SDS011;12539;48.808;11.292;2022-12-29T17:47:14;11.98;;;7.72;;
24401;SDS011;12539;48.808;11.292;2022-12-29T17:49:40;12.07;;;7.30;;
24401;SDS011;12539;48.808;11.292;2022-12-29T17:52:10;22.50;;;13.88;;
24401;SDS011;12539;48.808;11.292;2022-12-29T17:54:45;19.73;;;12.18;;
24401;SDS011;12539;48.808;11.292;2022-12-29T17:57:15;25.63;;;15.38;;
24401;SDS011;12539;48.808;11.292;2022-12-29T17:59:42;36.22;;;20.17;;
24401;SDS011;12539;48.808;11.292;2022-12-29T18:02:22;21.52;;;13.20;;